createdAt,value
2023-01-17T00:00:56.115Z,94126.56
2023-01-17T00:04:19.404Z,94151.41
2023-01-17T00:07:43.291Z,94149.00
2023-01-17T00:10:47.926Z,94153.84
2023-01-17T00:13:52.389Z,94154.88
2023-01-17T00:16:56.940Z,94151.31
2023-01-17T00:20:20.334Z,94150.81
2023-01-17T00:24:01.235Z,94154.19
2023-01-17T00:27:14.744Z,94162.56
2023-01-17T00:30:19.298Z,94162.38
2023-01-17T00:33:24.836Z,94163.78
2023-01-17T00:36:29.337Z,94179.50
2023-01-17T00:39:33.803Z,94184.53
2023-01-17T00:42:38.351Z,94197.66
2023-01-17T00:46:03.384Z,94202.41
2023-01-17T00:49:27.021Z,94199.63
2023-01-17T00:52:50.131Z,94194.91
2023-01-17T00:56:12.988Z,94194.91
2023-01-17T00:59:36.036Z,94211.66
2023-01-17T01:02:59.320Z,94200.16
2023-01-17T01:06:24.269Z,94208.91
2023-01-17T01:09:47.335Z,94215.63
2023-01-17T01:13:10.017Z,94226.00
2023-01-17T01:16:35.909Z,94209.94
2023-01-17T01:19:59.076Z,94223.63
2023-01-17T01:23:23.438Z,94220.94
2023-01-17T01:26:46.187Z,94230.78
2023-01-17T01:30:09.211Z,94221.19
2023-01-17T01:33:20.845Z,94234.91
2023-01-17T01:36:25.430Z,94236.31
2023-01-17T01:39:29.888Z,94237.69
2023-01-17T01:42:36.272Z,94184.19
2023-01-17T01:45:54.563Z,94240.25
2023-01-17T01:49:08.688Z,94233.28
2023-01-17T01:52:13.602Z,94231.22
2023-01-17T01:55:23.491Z,94229.78
2023-01-17T01:58:31.883Z,94234.50
2023-01-17T02:01:37.089Z,94235.59
2023-01-17T02:04:43.476Z,94230.78
2023-01-17T02:07:58.943Z,94239.84
2023-01-17T02:11:03.844Z,94237.56
2023-01-17T02:14:08.641Z,94235.66
2023-01-17T02:17:14.854Z,94236.66
2023-01-17T02:20:34.760Z,94230.38
2023-01-17T02:24:06.836Z,94230.03
2023-01-17T02:28:04.098Z,94234.31
2023-01-17T02:31:15.302Z,94224.94
2023-01-17T02:34:45.896Z,94227.47
2023-01-17T02:38:03.754Z,94235.44
2023-01-17T02:41:38.813Z,94233.13
2023-01-17T02:44:44.552Z,94240.16
2023-01-17T02:47:49.087Z,94241.53
2023-01-17T02:51:05.813Z,94243.09
2023-01-17T02:54:40.894Z,94253.09
2023-01-17T02:58:10.192Z,94249.75
2023-01-17T03:01:41.051Z,94255.22
2023-01-17T03:04:53.979Z,94259.25
2023-01-17T03:07:58.741Z,94260.31
2023-01-17T03:11:04.873Z,94256.94
2023-01-17T03:14:09.567Z,94257.19
2023-01-17T03:17:14.155Z,94259.31
2023-01-17T03:20:18.965Z,94258.41
2023-01-17T03:23:23.548Z,94264.72
2023-01-17T03:26:29.057Z,94228.78
2023-01-17T03:29:33.594Z,94261.53
2023-01-17T03:32:38.079Z,94270.00
2023-01-17T03:35:45.016Z,94270.38
2023-01-17T03:38:49.626Z,94264.00
2023-01-17T03:41:54.099Z,94263.25
2023-01-17T03:44:58.626Z,94267.75
2023-01-17T03:48:03.254Z,94269.66
2023-01-17T03:51:07.811Z,94269.81
2023-01-17T03:54:12.355Z,94278.13
2023-01-17T03:57:18.014Z,94254.66
2023-01-17T04:00:22.540Z,94283.59
2023-01-17T04:03:27.086Z,94271.50
2023-01-17T04:06:31.548Z,94261.50
2023-01-17T04:09:36.157Z,94267.44
2023-01-17T04:12:43.840Z,94252.16
2023-01-17T04:15:50.422Z,94259.19
2023-01-17T04:18:55.387Z,94260.72
2023-01-17T04:21:59.845Z,94256.59
2023-01-17T04:25:04.719Z,94267.75
2023-01-17T04:28:10.849Z,94268.03
2023-01-17T04:31:16.715Z,94261.09
2023-01-17T04:34:21.407Z,94273.34
2023-01-17T04:37:25.933Z,94274.88
2023-01-17T04:40:30.510Z,94280.59
2023-01-17T04:43:35.170Z,94282.47
2023-01-17T04:46:39.682Z,94280.34
2023-01-17T04:49:44.328Z,94287.72
2023-01-17T04:52:50.108Z,94237.13
2023-01-17T04:55:54.797Z,94289.03
2023-01-17T04:58:59.326Z,94290.53
2023-01-17T05:02:03.976Z,94285.59
2023-01-17T05:05:09.165Z,94287.50
2023-01-17T05:08:13.917Z,94278.25
2023-01-17T05:11:18.733Z,94296.06
2023-01-17T05:14:26.272Z,94289.72
2023-01-17T05:17:30.774Z,94286.56
2023-01-17T05:20:36.478Z,94292.09
2023-01-17T05:23:42.575Z,94295.63
2023-01-17T05:26:54.539Z,94298.91
2023-01-17T05:29:59.106Z,94298.97
2023-01-17T05:33:03.597Z,94297.03
2023-01-17T05:36:08.390Z,94298.09
2023-01-17T05:39:13.296Z,94296.47
2023-01-17T05:42:18.081Z,94294.72
2023-01-17T05:45:24.662Z,94312.63
2023-01-17T05:48:29.180Z,94312.34
2023-01-17T05:51:37.712Z,94320.63
2023-01-17T05:54:44.055Z,94298.31
2023-01-17T05:57:48.817Z,94336.75
2023-01-17T06:00:54.820Z,94334.16
2023-01-17T06:03:59.335Z,94338.03
2023-01-17T06:07:03.848Z,94341.59
2023-01-17T06:10:10.741Z,94342.16
2023-01-17T06:13:20.710Z,94360.91
2023-01-17T06:16:25.279Z,94353.44
2023-01-17T06:19:29.948Z,94360.25
2023-01-17T06:22:34.745Z,94364.97
2023-01-17T06:25:43.886Z,94355.75
2023-01-17T06:28:48.583Z,94367.03
2023-01-17T06:31:53.058Z,94358.03
2023-01-17T06:34:57.591Z,94360.47
2023-01-17T06:38:02.109Z,94351.63
2023-01-17T06:41:06.690Z,94363.84
2023-01-17T06:44:11.406Z,94365.31
2023-01-17T06:47:15.938Z,94366.69
2023-01-17T06:50:20.465Z,94365.69
2023-01-17T06:53:25.260Z,94377.81
2023-01-17T06:56:32.692Z,94382.06
2023-01-17T06:59:37.179Z,94386.25
2023-01-17T07:02:41.734Z,94390.56
2023-01-17T07:05:46.282Z,94389.78
2023-01-17T07:08:50.952Z,94392.97
2023-01-17T07:11:59.679Z,94392.81
2023-01-17T07:15:05.114Z,94384.16
2023-01-17T07:18:09.748Z,94387.44
2023-01-17T07:21:15.417Z,94383.38
2023-01-17T07:24:20.775Z,94368.06
2023-01-17T07:27:27.663Z,94384.25
2023-01-17T07:30:32.456Z,94394.34
2023-01-17T07:33:37.060Z,94389.03
2023-01-17T07:36:41.523Z,94386.81
2023-01-17T07:39:46.345Z,94380.72
2023-01-17T07:42:50.897Z,94372.66
2023-01-17T07:45:55.462Z,94378.22
2023-01-17T07:49:03.263Z,94361.59
2023-01-17T07:52:08.485Z,94378.31
2023-01-17T07:55:12.995Z,94382.22
2023-01-17T07:58:17.872Z,94383.94
2023-01-17T08:01:22.519Z,94379.78
2023-01-17T08:04:27.567Z,94379.91
2023-01-17T08:07:32.107Z,94377.75
2023-01-17T08:10:36.681Z,94383.88
2023-01-17T08:13:41.823Z,94378.56
2023-01-17T08:16:46.364Z,94372.03
2023-01-17T08:19:52.126Z,94362.94
2023-01-17T08:22:56.974Z,94355.34
2023-01-17T08:26:01.819Z,94350.91
2023-01-17T08:29:06.379Z,94362.38
2023-01-17T08:32:12.520Z,94333.94
2023-01-17T08:35:17.252Z,94361.28
2023-01-17T08:38:23.670Z,94351.00
2023-01-17T08:41:28.400Z,94349.72
2023-01-17T08:44:33.028Z,94355.97
2023-01-17T08:47:37.939Z,94351.44
2023-01-17T08:50:42.468Z,94348.28
2023-01-17T08:53:48.820Z,94348.88
2023-01-17T08:56:54.725Z,94342.53
2023-01-17T08:59:59.283Z,94338.34
2023-01-17T09:03:03.831Z,94335.66
2023-01-17T09:06:11.174Z,94333.78
2023-01-17T09:09:17.182Z,94334.19
2023-01-17T09:12:22.361Z,94318.00
2023-01-17T09:15:26.899Z,94320.06
2023-01-17T09:18:32.866Z,94315.91
2023-01-17T09:21:37.406Z,94312.38
2023-01-17T09:24:42.136Z,94304.41
2023-01-17T09:27:48.063Z,94259.41
2023-01-17T09:30:53.416Z,94301.75
2023-01-17T09:33:58.750Z,94305.94
2023-01-17T09:37:03.290Z,94299.97
2023-01-17T09:40:10.842Z,94301.00
2023-01-17T09:43:26.840Z,94306.94
2023-01-17T09:46:42.634Z,94318.38
2023-01-17T09:49:47.674Z,94314.16
2023-01-17T09:53:01.115Z,94294.72
2023-01-17T09:56:06.800Z,94301.84
2023-01-17T09:59:20.945Z,94288.53
2023-01-17T10:02:34.446Z,94306.84
2023-01-17T10:05:47.357Z,94300.78
2023-01-17T10:09:24.258Z,94284.19
2023-01-17T10:12:46.206Z,94271.44
2023-01-17T10:16:15.622Z,94283.16
2023-01-17T10:19:23.126Z,94275.13
2023-01-17T10:22:53.600Z,94271.66
2023-01-17T10:26:03.066Z,94253.63
2023-01-17T10:29:16.476Z,94263.38
2023-01-17T10:32:25.907Z,94268.91
2023-01-17T10:35:36.655Z,94269.22
2023-01-17T10:38:45.800Z,94238.91
2023-01-17T10:41:55.826Z,94236.78
2023-01-17T10:45:13.837Z,94212.63
2023-01-17T10:48:33.542Z,94217.28
2023-01-17T10:52:00.188Z,94202.66
2023-01-17T10:55:16.988Z,94209.19
2023-01-17T10:58:21.507Z,94196.56
2023-01-17T11:01:26.299Z,94203.00
2023-01-17T11:04:38.179Z,94205.75
2023-01-17T11:08:00.749Z,94186.53
2023-01-17T11:11:05.583Z,94182.59
2023-01-17T11:14:20.484Z,94167.41
2023-01-17T11:17:27.582Z,94175.22
2023-01-17T11:20:38.212Z,94172.09
2023-01-17T11:23:45.122Z,94167.03
2023-01-17T11:26:49.729Z,94150.47
2023-01-17T11:30:17.996Z,94146.13
2023-01-17T11:33:23.992Z,94138.22
2023-01-17T11:36:30.783Z,94123.22
2023-01-17T11:39:35.327Z,94108.06
2023-01-17T11:42:39.804Z,94083.97
2023-01-17T11:45:45.845Z,94066.63
2023-01-17T11:48:52.936Z,94063.44
2023-01-17T11:51:58.441Z,94076.66
2023-01-17T11:55:02.975Z,94080.47
2023-01-17T11:58:14.433Z,94084.41
2023-01-17T12:01:30.291Z,94083.88
2023-01-17T12:04:40.611Z,94076.25
2023-01-17T12:08:08.100Z,94101.78
2023-01-17T12:11:22.947Z,94111.59
2023-01-17T12:14:55.493Z,94116.97
2023-01-17T12:18:33.528Z,94111.28
2023-01-17T12:22:08.762Z,94090.97
2023-01-17T12:25:22.977Z,94090.50
2023-01-17T12:28:52.011Z,94090.59
2023-01-17T12:32:24.701Z,94088.22
2023-01-17T12:35:50.570Z,94081.44
2023-01-17T12:38:56.476Z,94077.03
2023-01-17T12:42:26.211Z,94071.72
2023-01-17T12:45:38.288Z,94071.75
2023-01-17T12:48:44.836Z,94067.41
2023-01-17T12:51:57.228Z,94063.19
2023-01-17T12:55:17.634Z,94047.00
2023-01-17T12:58:25.289Z,94044.81
2023-01-17T13:01:35.396Z,94046.88
2023-01-17T13:04:58.385Z,94048.31
2023-01-17T13:08:06.702Z,94034.31
2023-01-17T13:11:30.207Z,94034.91
2023-01-17T13:14:34.697Z,94013.28
2023-01-17T13:17:49.628Z,94014.75
2023-01-17T13:21:20.631Z,94007.81
2023-01-17T13:24:35.338Z,94006.19
2023-01-17T13:28:03.216Z,93998.78
2023-01-17T13:31:35.850Z,93990.78
2023-01-17T13:34:56.476Z,93982.53
2023-01-17T13:38:22.674Z,93979.38
2023-01-17T13:41:28.839Z,93970.66
2023-01-17T13:44:33.349Z,93961.00
2023-01-17T13:47:40.416Z,93962.19
2023-01-17T13:50:46.408Z,93962.03
2023-01-17T13:53:50.920Z,93960.50
2023-01-17T13:57:27.842Z,93964.03
2023-01-17T14:00:45.555Z,93959.53
2023-01-17T14:03:50.125Z,93963.69
2023-01-17T14:06:57.821Z,93959.63
2023-01-17T14:10:23.827Z,93964.81
2023-01-17T14:13:31.417Z,93970.56
2023-01-17T14:16:35.911Z,93981.38
2023-01-17T14:19:40.571Z,93977.06
2023-01-17T14:22:53.449Z,93974.78
2023-01-17T14:25:59.401Z,93972.28
2023-01-17T14:29:42.447Z,93968.28
2023-01-17T14:32:58.835Z,93954.88
2023-01-17T14:36:06.202Z,93940.47
2023-01-17T14:39:23.222Z,93939.78
2023-01-17T14:42:31.259Z,93930.81
2023-01-17T14:45:36.695Z,93935.59
2023-01-17T14:48:41.819Z,93929.91
2023-01-17T14:52:02.547Z,93929.53
2023-01-17T14:55:18.792Z,93920.94
2023-01-17T14:58:31.958Z,93921.91
2023-01-17T15:01:37.237Z,93914.44
2023-01-17T15:04:42.056Z,93914.53
2023-01-17T15:07:50.487Z,93908.09
2023-01-17T15:10:58.969Z,93885.75
2023-01-17T15:14:06.402Z,93885.91
2023-01-17T15:17:18.102Z,93879.69
2023-01-17T15:20:22.595Z,93864.31
2023-01-17T15:23:34.266Z,93864.41
2023-01-17T15:26:42.236Z,93863.06
2023-01-17T15:29:47.726Z,93853.56
2023-01-17T15:32:54.135Z,93811.50
2023-01-17T15:36:04.270Z,93833.88
2023-01-17T15:39:23.426Z,93815.50
2023-01-17T15:42:31.389Z,93801.59
2023-01-17T15:45:36.030Z,93797.88
2023-01-17T15:48:44.788Z,93798.88
2023-01-17T15:52:15.547Z,93805.78
2023-01-17T15:55:32.179Z,93807.25
2023-01-17T15:58:36.692Z,93794.09
2023-01-17T16:01:41.379Z,93803.63
2023-01-17T16:04:46.005Z,93788.44
2023-01-17T16:07:56.625Z,93786.53
2023-01-17T16:11:03.523Z,93795.84
2023-01-17T16:14:08.008Z,93794.88
2023-01-17T16:17:17.070Z,93784.72
2023-01-17T16:20:58.187Z,93777.78
2023-01-17T16:24:03.073Z,93765.94
2023-01-17T16:27:09.051Z,93762.50
2023-01-17T16:30:16.326Z,93753.00
2023-01-17T16:33:20.853Z,93748.50
2023-01-17T16:36:25.316Z,93724.56
2023-01-17T16:39:30.345Z,93710.63
2023-01-17T16:42:34.844Z,93719.94
2023-01-17T16:45:41.633Z,93723.69
2023-01-17T16:48:46.139Z,93725.03
2023-01-17T16:51:51.700Z,93731.28
2023-01-17T16:54:56.273Z,93741.88
2023-01-17T16:58:00.784Z,93740.59
2023-01-17T17:01:06.984Z,93740.06
2023-01-17T17:04:12.997Z,93729.25
2023-01-17T17:07:17.588Z,93699.03
2023-01-17T17:10:24.953Z,93722.78
2023-01-17T17:13:29.446Z,93726.00
2023-01-17T17:16:34.092Z,93733.38
2023-01-17T17:19:38.633Z,93740.97
2023-01-17T17:22:48.829Z,93744.06
2023-01-17T17:25:57.579Z,93752.78
2023-01-17T17:29:04.249Z,93750.69
2023-01-17T17:32:11.445Z,93751.78
2023-01-17T17:35:16.018Z,93742.53
2023-01-17T17:38:20.496Z,93756.91
2023-01-17T17:41:27.681Z,93769.41
2023-01-17T17:44:32.200Z,93772.03
2023-01-17T17:47:38.080Z,93741.03
2023-01-17T17:50:42.921Z,93783.44
2023-01-17T17:53:47.414Z,93782.13
2023-01-17T17:56:52.160Z,93779.69
2023-01-17T17:59:59.453Z,93781.69
2023-01-17T18:03:04.169Z,93773.59
2023-01-17T18:06:12.080Z,93764.78
2023-01-17T18:09:16.806Z,93753.75
2023-01-17T18:12:21.389Z,93754.41
2023-01-17T18:15:25.921Z,93747.19
2023-01-17T18:18:31.234Z,93749.66
2023-01-17T18:21:37.883Z,93753.81
2023-01-17T18:24:44.042Z,93718.44
2023-01-17T18:27:48.607Z,93759.63
2023-01-17T18:30:53.055Z,93758.78
2023-01-17T18:34:01.136Z,93761.53
2023-01-17T18:37:05.650Z,93765.84
2023-01-17T18:40:10.728Z,93754.75
2023-01-17T18:43:17.047Z,93734.28
2023-01-17T18:46:22.318Z,93763.69
2023-01-17T18:49:26.973Z,93757.69
2023-01-17T18:52:33.168Z,93760.50
2023-01-17T18:55:37.671Z,93757.06
2023-01-17T18:58:44.724Z,93746.19
2023-01-17T19:01:49.855Z,93744.88
2023-01-17T19:04:54.442Z,93744.88
2023-01-17T19:07:58.912Z,93739.72
2023-01-17T19:11:04.311Z,93743.16
2023-01-17T19:14:09.733Z,93743.19
2023-01-17T19:17:14.283Z,93748.63
2023-01-17T19:20:18.974Z,93758.06
2023-01-17T19:23:24.997Z,93732.75
2023-01-17T19:26:29.990Z,93752.84
2023-01-17T19:29:34.582Z,93758.34
2023-01-17T19:32:39.039Z,93760.94
2023-01-17T19:35:43.579Z,93759.91
2023-01-17T19:39:03.013Z,93751.41
2023-01-17T19:42:15.312Z,93764.47
2023-01-17T19:45:19.914Z,93766.56
2023-01-17T19:48:25.289Z,93770.84
2023-01-17T19:51:34.813Z,93727.38
2023-01-17T19:54:39.377Z,93774.03
2023-01-17T19:57:43.949Z,93771.81
2023-01-17T20:00:48.487Z,93777.97
2023-01-17T20:03:53.035Z,93777.44
2023-01-17T20:06:57.600Z,93762.00
2023-01-17T20:10:04.674Z,93773.16
2023-01-17T20:13:09.195Z,93782.69
2023-01-17T20:16:15.397Z,93785.19
2023-01-17T20:19:20.497Z,93798.28
2023-01-17T20:22:25.007Z,93795.72
2023-01-17T20:25:29.579Z,93803.97
2023-01-17T20:28:36.596Z,93805.97
2023-01-17T20:31:42.693Z,93809.72
2023-01-17T20:34:47.972Z,93805.56
2023-01-17T20:37:52.601Z,93809.03
2023-01-17T20:40:57.180Z,93816.28
2023-01-17T20:44:02.921Z,93823.56
2023-01-17T20:47:07.434Z,93830.72
2023-01-17T20:50:12.074Z,93833.66
2023-01-17T20:53:18.299Z,93842.53
2023-01-17T20:56:24.012Z,93844.69
2023-01-17T20:59:28.509Z,93848.03
2023-01-17T21:02:33.375Z,93842.69
2023-01-17T21:05:37.935Z,93855.38
2023-01-17T21:08:44.647Z,93850.25
2023-01-17T21:11:49.413Z,93855.66
2023-01-17T21:14:53.892Z,93846.44
2023-01-17T21:17:58.499Z,93854.09
2023-01-17T21:21:08.894Z,93859.53
2023-01-17T21:24:18.498Z,93829.88
2023-01-17T21:27:22.968Z,93871.25
2023-01-17T21:30:27.636Z,93874.91
2023-01-17T21:33:32.233Z,93885.63
2023-01-17T21:36:40.477Z,93876.13
2023-01-17T21:39:47.247Z,93902.47
2023-01-17T21:42:52.622Z,93908.63
2023-01-17T21:46:01.035Z,93900.13
2023-01-17T21:49:06.519Z,93900.81
2023-01-17T21:52:11.787Z,93906.59
2023-01-17T21:55:35.120Z,93904.13
2023-01-17T21:58:45.533Z,93901.56
2023-01-17T22:01:50.078Z,93904.06
2023-01-17T22:04:56.086Z,93909.13
2023-01-17T22:08:11.182Z,93888.03
2023-01-17T22:11:18.721Z,93915.75
2023-01-17T22:14:23.233Z,93914.50
2023-01-17T22:17:29.497Z,93912.25
2023-01-17T22:20:34.180Z,93913.03
2023-01-17T22:23:39.796Z,93916.19
2023-01-17T22:26:44.314Z,93910.81
2023-01-17T22:29:48.867Z,93907.50
2023-01-17T22:32:55.903Z,93892.31
2023-01-17T22:36:00.612Z,93897.28
2023-01-17T22:39:05.177Z,93901.16
2023-01-17T22:42:09.974Z,93898.81
2023-01-17T22:45:17.330Z,93882.28
2023-01-17T22:48:21.807Z,93916.00
2023-01-17T22:51:28.137Z,93927.44
2023-01-17T22:54:32.622Z,93935.56
2023-01-17T22:57:37.223Z,93938.94
2023-01-17T23:00:41.742Z,93933.41
2023-01-17T23:03:51.701Z,93941.19
2023-01-17T23:06:56.284Z,93942.66
2023-01-17T23:10:01.987Z,93907.44
2023-01-17T23:13:10.288Z,93931.75
2023-01-17T23:16:33.132Z,93926.69
2023-01-17T23:19:49.258Z,93933.72
2023-01-17T23:22:53.852Z,93935.00
2023-01-17T23:26:01.603Z,93938.53
2023-01-17T23:29:06.196Z,93941.00
2023-01-17T23:32:10.855Z,93942.53
2023-01-17T23:35:17.083Z,93939.66
2023-01-17T23:38:29.237Z,93943.94
2023-01-17T23:41:52.305Z,93937.97
2023-01-17T23:44:56.897Z,93932.53
2023-01-17T23:48:01.900Z,93924.44
2023-01-17T23:51:09.775Z,93904.06
2023-01-17T23:54:14.316Z,93917.53
2023-01-17T23:57:19.720Z,93911.94
